sensor_id;sensor_type;location;lat;lon;timestamp;temperature;humidity
6307;DHT22;3186;54.062;9.962;2023-05-29T00:00:58;15.40;5.90
6307;DHT22;3186;54.062;9.962;2023-05-29T00:03:25;15.30;6.40
6307;DHT22;3186;54.062;9.962;2023-05-29T00:05:51;15.40;6.20
6307;DHT22;3186;54.062;9.962;2023-05-29T00:10:44;15.20;5.60
6307;DHT22;3186;54.062;9.962;2023-05-29T00:13:10;15.30;6.40
6307;DHT22;3186;54.062;9.962;2023-05-29T00:15:36;15.20;5.60
6307;DHT22;3186;54.062;9.962;2023-05-29T00:18:02;15.10;6.70
6307;DHT22;3186;54.062;9.962;2023-05-29T00:20:28;15.00;7.20
6307;DHT22;3186;54.062;9.962;2023-05-29T00:22:53;14.90;7.50
6307;DHT22;3186;54.062;9.962;2023-05-29T00:25:19;15.00;7.20
6307;DHT22;3186;54.062;9.962;2023-05-29T00:27:45;15.00;7.20
6307;DHT22;3186;54.062;9.962;2023-05-29T00:30:11;15.00;7.00
6307;DHT22;3186;54.062;9.962;2023-05-29T00:32:37;15.00;6.90
6307;DHT22;3186;54.062;9.962;2023-05-29T00:35:03;14.80;6.60
6307;DHT22;3186;54.062;9.962;2023-05-29T00:37:29;14.80;7.50
6307;DHT22;3186;54.062;9.962;2023-05-29T00:39:55;14.70;8.70
6307;DHT22;3186;54.062;9.962;2023-05-29T00:42:21;14.50;8.40
6307;DHT22;3186;54.062;9.962;2023-05-29T00:44:47;14.60;8.00
6307;DHT22;3186;54.062;9.962;2023-05-29T00:47:13;14.60;7.70
6307;DHT22;3186;54.062;9.962;2023-05-29T00:49:39;14.70;7.80
6307;DHT22;3186;54.062;9.962;2023-05-29T00:52:06;14.60;8.40
6307;DHT22;3186;54.062;9.962;2023-05-29T00:54:33;16.30;9.60
6307;DHT22;3186;54.062;9.962;2023-05-29T00:56:59;14.50;8.00
6307;DHT22;3186;54.062;9.962;2023-05-29T00:59:29;14.50;8.20
6307;DHT22;3186;54.062;9.962;2023-05-29T01:01:55;14.50;8.40
6307;DHT22;3186;54.062;9.962;2023-05-29T01:04:23;14.50;8.50
6307;DHT22;3186;54.062;9.962;2023-05-29T01:06:51;14.40;8.40
6307;DHT22;3186;54.062;9.962;2023-05-29T01:09:17;14.40;8.50
6307;DHT22;3186;54.062;9.962;2023-05-29T01:12:23;14.30;8.40
6307;DHT22;3186;54.062;9.962;2023-05-29T01:20:08;14.20;8.80
6307;DHT22;3186;54.062;9.962;2023-05-29T01:28:16;14.10;8.70
6307;DHT22;3186;54.062;9.962;2023-05-29T01:30:45;14.00;9.30
6307;DHT22;3186;54.062;9.962;2023-05-29T01:33:12;14.00;9.30
6307;DHT22;3186;54.062;9.962;2023-05-29T01:35:38;14.00;8.30
6307;DHT22;3186;54.062;9.962;2023-05-29T01:38:04;13.90;9.50
6307;DHT22;3186;54.062;9.962;2023-05-29T01:40:30;13.90;9.50
6307;DHT22;3186;54.062;9.962;2023-05-29T01:42:56;13.90;9.80
6307;DHT22;3186;54.062;9.962;2023-05-29T01:45:22;13.80;10.10
6307;DHT22;3186;54.062;9.962;2023-05-29T01:47:48;13.70;10.70
6307;DHT22;3186;54.062;9.962;2023-05-29T01:50:17;13.70;10.50
6307;DHT22;3186;54.062;9.962;2023-05-29T01:52:44;13.60;11.70
6307;DHT22;3186;54.062;9.962;2023-05-29T01:55:10;13.60;10.00
6307;DHT22;3186;54.062;9.962;2023-05-29T01:57:37;13.60;11.10
6307;DHT22;3186;54.062;9.962;2023-05-29T02:00:04;13.60;10.80
6307;DHT22;3186;54.062;9.962;2023-05-29T02:02:40;13.50;11.20
6307;DHT22;3186;54.062;9.962;2023-05-29T02:05:07;13.50;10.40
6307;DHT22;3186;54.062;9.962;2023-05-29T02:07:34;13.50;11.50
6307;DHT22;3186;54.062;9.962;2023-05-29T02:10:00;13.50;11.30
6307;DHT22;3186;54.062;9.962;2023-05-29T02:12:26;13.50;11.50
6307;DHT22;3186;54.062;9.962;2023-05-29T02:14:52;13.40;11.00
6307;DHT22;3186;54.062;9.962;2023-05-29T02:17:18;13.40;11.90
6307;DHT22;3186;54.062;9.962;2023-05-29T02:19:46;13.40;12.10
6307;DHT22;3186;54.062;9.962;2023-05-29T02:22:12;13.40;12.20
6307;DHT22;3186;54.062;9.962;2023-05-29T02:24:38;13.20;11.90
6307;DHT22;3186;54.062;9.962;2023-05-29T02:27:04;13.20;12.90
6307;DHT22;3186;54.062;9.962;2023-05-29T02:29:30;13.20;13.20
6307;DHT22;3186;54.062;9.962;2023-05-29T02:31:56;13.20;12.60
6307;DHT22;3186;54.062;9.962;2023-05-29T02:34:21;13.10;13.20
6307;DHT22;3186;54.062;9.962;2023-05-29T02:36:51;13.10;13.60
6307;DHT22;3186;54.062;9.962;2023-05-29T02:39:20;13.10;13.20
6307;DHT22;3186;54.062;9.962;2023-05-29T02:41:46;13.10;14.10
6307;DHT22;3186;54.062;9.962;2023-05-29T02:44:12;13.00;12.90
6307;DHT22;3186;54.062;9.962;2023-05-29T02:46:38;13.00;13.90
6307;DHT22;3186;54.062;9.962;2023-05-29T02:49:04;13.00;14.30
6307;DHT22;3186;54.062;9.962;2023-05-29T02:51:30;12.90;14.10
6307;DHT22;3186;54.062;9.962;2023-05-29T02:53:58;12.90;14.10
6307;DHT22;3186;54.062;9.962;2023-05-29T02:56:24;12.90;14.20
6307;DHT22;3186;54.062;9.962;2023-05-29T02:58:50;12.80;14.50
6307;DHT22;3186;54.062;9.962;2023-05-29T03:01:17;12.80;15.20
6307;DHT22;3186;54.062;9.962;2023-05-29T03:03:43;12.70;14.30
6307;DHT22;3186;54.062;9.962;2023-05-29T03:06:09;12.70;15.70
6307;DHT22;3186;54.062;9.962;2023-05-29T03:08:36;12.70;15.80
6307;DHT22;3186;54.062;9.962;2023-05-29T03:11:09;12.60;16.00
6307;DHT22;3186;54.062;9.962;2023-05-29T03:13:38;12.60;16.10
6307;DHT22;3186;54.062;9.962;2023-05-29T03:16:07;12.60;16.10
6307;DHT22;3186;54.062;9.962;2023-05-29T03:18:35;12.60;16.10
6307;DHT22;3186;54.062;9.962;2023-05-29T03:21:01;12.50;17.10
6307;DHT22;3186;54.062;9.962;2023-05-29T03:23:30;12.50;16.50
6307;DHT22;3186;54.062;9.962;2023-05-29T03:25:56;12.50;16.00
6307;DHT22;3186;54.062;9.962;2023-05-29T03:28:22;12.50;16.90
6307;DHT22;3186;54.062;9.962;2023-05-29T03:30:51;12.40;16.90
6307;DHT22;3186;54.062;9.962;2023-05-29T03:33:19;12.40;17.00
6307;DHT22;3186;54.062;9.962;2023-05-29T03:38:33;12.30;17.30
6307;DHT22;3186;54.062;9.962;2023-05-29T03:40:59;12.30;18.00
6307;DHT22;3186;54.062;9.962;2023-05-29T03:43:26;12.20;18.00
6307;DHT22;3186;54.062;9.962;2023-05-29T03:45:52;12.20;17.30
6307;DHT22;3186;54.062;9.962;2023-05-29T03:48:19;12.20;18.50
6307;DHT22;3186;54.062;9.962;2023-05-29T03:50:46;12.20;18.60
6307;DHT22;3186;54.062;9.962;2023-05-29T03:53:14;12.20;18.80
6307;DHT22;3186;54.062;9.962;2023-05-29T03:58:08;12.10;18.70
6307;DHT22;3186;54.062;9.962;2023-05-29T04:00:35;12.10;19.70
6307;DHT22;3186;54.062;9.962;2023-05-29T04:03:02;12.00;20.60
6307;DHT22;3186;54.062;9.962;2023-05-29T04:05:28;12.00;20.20
6307;DHT22;3186;54.062;9.962;2023-05-29T04:07:55;12.00;20.70
6307;DHT22;3186;54.062;9.962;2023-05-29T04:10:21;12.00;21.30
6307;DHT22;3186;54.062;9.962;2023-05-29T04:12:49;11.90;21.00
6307;DHT22;3186;54.062;9.962;2023-05-29T04:15:15;11.90;21.90
6307;DHT22;3186;54.062;9.962;2023-05-29T04:17:40;12.00;21.90
6307;DHT22;3186;54.062;9.962;2023-05-29T04:20:07;11.90;23.10
6307;DHT22;3186;54.062;9.962;2023-05-29T04:22:36;11.90;22.40
6307;DHT22;3186;54.062;9.962;2023-05-29T04:25:04;11.90;22.20
6307;DHT22;3186;54.062;9.962;2023-05-29T04:27:33;11.90;22.50
6307;DHT22;3186;54.062;9.962;2023-05-29T04:30:08;11.90;23.20
6307;DHT22;3186;54.062;9.962;2023-05-29T04:32:38;11.90;23.70
6307;DHT22;3186;54.062;9.962;2023-05-29T04:35:06;11.90;23.70
6307;DHT22;3186;54.062;9.962;2023-05-29T04:37:35;11.90;24.50
6307;DHT22;3186;54.062;9.962;2023-05-29T04:40:07;11.90;24.90
6307;DHT22;3186;54.062;9.962;2023-05-29T04:42:36;11.90;24.80
6307;DHT22;3186;54.062;9.962;2023-05-29T04:47:32;11.80;25.70
6307;DHT22;3186;54.062;9.962;2023-05-29T04:50:01;11.90;27.10
6307;DHT22;3186;54.062;9.962;2023-05-29T04:52:27;11.80;26.60
6307;DHT22;3186;54.062;9.962;2023-05-29T04:54:54;11.80;26.20
6307;DHT22;3186;54.062;9.962;2023-05-29T04:57:20;11.70;29.30
6307;DHT22;3186;54.062;9.962;2023-05-29T04:59:48;11.70;40.00
6307;DHT22;3186;54.062;9.962;2023-05-29T05:02:14;11.70;30.00
6307;DHT22;3186;54.062;9.962;2023-05-29T05:04:40;11.80;29.40
6307;DHT22;3186;54.062;9.962;2023-05-29T05:07:06;11.80;29.50
6307;DHT22;3186;54.062;9.962;2023-05-29T05:09:32;11.80;29.40
6307;DHT22;3186;54.062;9.962;2023-05-29T05:11:58;11.80;33.90
6307;DHT22;3186;54.062;9.962;2023-05-29T05:14:24;11.90;33.90
6307;DHT22;3186;54.062;9.962;2023-05-29T05:16:50;11.80;38.40
6307;DHT22;3186;54.062;9.962;2023-05-29T05:19:16;11.80;37.50
6307;DHT22;3186;54.062;9.962;2023-05-29T05:21:43;11.80;36.90
6307;DHT22;3186;54.062;9.962;2023-05-29T05:24:09;11.90;34.40
6307;DHT22;3186;54.062;9.962;2023-05-29T05:26:39;11.90;35.90
6307;DHT22;3186;54.062;9.962;2023-05-29T05:29:05;12.00;34.70
6307;DHT22;3186;54.062;9.962;2023-05-29T05:31:38;12.00;36.70
6307;DHT22;3186;54.062;9.962;2023-05-29T05:34:04;12.20;36.30
6307;DHT22;3186;54.062;9.962;2023-05-29T05:36:29;12.10;33.40
6307;DHT22;3186;54.062;9.962;2023-05-29T05:39:02;12.30;36.50
6307;DHT22;3186;54.062;9.962;2023-05-29T05:41:29;12.30;34.80
6307;DHT22;3186;54.062;9.962;2023-05-29T05:43:55;12.40;38.20
6307;DHT22;3186;54.062;9.962;2023-05-29T05:46:33;12.40;38.10
6307;DHT22;3186;54.062;9.962;2023-05-29T05:48:58;12.60;35.20
6307;DHT22;3186;54.062;9.962;2023-05-29T05:51:26;12.70;37.20
6307;DHT22;3186;54.062;9.962;2023-05-29T05:53:52;12.80;34.60
6307;DHT22;3186;54.062;9.962;2023-05-29T05:56:19;12.80;35.50
6307;DHT22;3186;54.062;9.962;2023-05-29T05:58:45;12.90;38.40
6307;DHT22;3186;54.062;9.962;2023-05-29T06:01:11;13.00;36.00
6307;DHT22;3186;54.062;9.962;2023-05-29T06:03:37;13.20;33.20
6307;DHT22;3186;54.062;9.962;2023-05-29T06:06:07;13.20;34.30
6307;DHT22;3186;54.062;9.962;2023-05-29T06:08:35;13.30;34.80
6307;DHT22;3186;54.062;9.962;2023-05-29T06:11:00;13.30;34.40
6307;DHT22;3186;54.062;9.962;2023-05-29T06:13:28;13.40;37.90
6307;DHT22;3186;54.062;9.962;2023-05-29T06:15:59;13.40;39.60
6307;DHT22;3186;54.062;9.962;2023-05-29T06:18:25;13.40;39.40
6307;DHT22;3186;54.062;9.962;2023-05-29T06:20:51;13.60;36.20
6307;DHT22;3186;54.062;9.962;2023-05-29T06:23:17;13.60;46.20
6307;DHT22;3186;54.062;9.962;2023-05-29T06:25:44;13.70;34.30
6307;DHT22;3186;54.062;9.962;2023-05-29T06:28:10;13.80;35.60
6307;DHT22;3186;54.062;9.962;2023-05-29T06:30:35;14.00;39.10
6307;DHT22;3186;54.062;9.962;2023-05-29T06:33:05;14.00;33.10
6307;DHT22;3186;54.062;9.962;2023-05-29T06:35:31;14.10;35.60
6307;DHT22;3186;54.062;9.962;2023-05-29T06:37:58;14.30;34.40
6307;DHT22;3186;54.062;9.962;2023-05-29T06:40:24;14.50;33.00
6307;DHT22;3186;54.062;9.962;2023-05-29T06:42:50;14.70;29.90
6307;DHT22;3186;54.062;9.962;2023-05-29T06:45:16;14.80;30.40
6307;DHT22;3186;54.062;9.962;2023-05-29T06:47:43;14.70;30.00
6307;DHT22;3186;54.062;9.962;2023-05-29T06:50:10;14.80;33.60
6307;DHT22;3186;54.062;9.962;2023-05-29T06:52:37;14.80;30.20
6307;DHT22;3186;54.062;9.962;2023-05-29T06:57:48;15.10;29.60
6307;DHT22;3186;54.062;9.962;2023-05-29T07:00:15;15.30;32.20
6307;DHT22;3186;54.062;9.962;2023-05-29T07:02:48;15.50;31.00
6307;DHT22;3186;54.062;9.962;2023-05-29T07:05:15;15.50;27.90
6307;DHT22;3186;54.062;9.962;2023-05-29T07:07:41;15.50;27.30
6307;DHT22;3186;54.062;9.962;2023-05-29T07:10:10;15.60;29.70
6307;DHT22;3186;54.062;9.962;2023-05-29T07:12:36;15.60;27.60
6307;DHT22;3186;54.062;9.962;2023-05-29T07:15:03;15.80;27.80
6307;DHT22;3186;54.062;9.962;2023-05-29T07:17:29;15.90;27.40
6307;DHT22;3186;54.062;9.962;2023-05-29T07:20:07;16.00;25.70
6307;DHT22;3186;54.062;9.962;2023-05-29T07:22:34;15.90;23.10
6307;DHT22;3186;54.062;9.962;2023-05-29T07:25:01;16.20;25.20
6307;DHT22;3186;54.062;9.962;2023-05-29T07:27:27;16.40;27.20
6307;DHT22;3186;54.062;9.962;2023-05-29T07:29:53;16.60;25.50
6307;DHT22;3186;54.062;9.962;2023-05-29T07:32:19;16.70;23.00
6307;DHT22;3186;54.062;9.962;2023-05-29T07:34:46;16.60;22.40
6307;DHT22;3186;54.062;9.962;2023-05-29T07:37:12;16.60;24.20
6307;DHT22;3186;54.062;9.962;2023-05-29T07:39:39;16.90;26.50
6307;DHT22;3186;54.062;9.962;2023-05-29T07:42:18;17.10;20.30
6307;DHT22;3186;54.062;9.962;2023-05-29T07:44:44;17.20;19.90
6307;DHT22;3186;54.062;9.962;2023-05-29T07:47:11;17.20;23.40
6307;DHT22;3186;54.062;9.962;2023-05-29T07:49:44;16.90;19.10
6307;DHT22;3186;54.062;9.962;2023-05-29T07:52:10;17.20;21.50
6307;DHT22;3186;54.062;9.962;2023-05-29T07:54:36;17.50;20.60
6307;DHT22;3186;54.062;9.962;2023-05-29T07:57:03;17.70;22.60
6307;DHT22;3186;54.062;9.962;2023-05-29T07:59:35;18.00;20.10
6307;DHT22;3186;54.062;9.962;2023-05-29T08:02:01;17.90;20.20
6307;DHT22;3186;54.062;9.962;2023-05-29T08:04:55;17.70;16.40
6307;DHT22;3186;54.062;9.962;2023-05-29T08:07:23;17.60;18.00
6307;DHT22;3186;54.062;9.962;2023-05-29T08:09:49;17.60;18.50
6307;DHT22;3186;54.062;9.962;2023-05-29T08:12:15;18.00;20.60
6307;DHT22;3186;54.062;9.962;2023-05-29T08:14:42;18.70;15.50
6307;DHT22;3186;54.062;9.962;2023-05-29T08:17:08;18.80;17.90
6307;DHT22;3186;54.062;9.962;2023-05-29T08:19:34;18.60;17.00
6307;DHT22;3186;54.062;9.962;2023-05-29T08:22:00;17.80;15.00
6307;DHT22;3186;54.062;9.962;2023-05-29T08:24:26;18.10;19.00
6307;DHT22;3186;54.062;9.962;2023-05-29T08:26:53;18.40;19.30
6307;DHT22;3186;54.062;9.962;2023-05-29T08:29:19;18.50;15.60
6307;DHT22;3186;54.062;9.962;2023-05-29T08:31:45;19.10;18.00
6307;DHT22;3186;54.062;9.962;2023-05-29T08:34:11;20.10;18.10
6307;DHT22;3186;54.062;9.962;2023-05-29T08:36:37;20.20;19.40
6307;DHT22;3186;54.062;9.962;2023-05-29T08:39:07;19.70;13.20
6307;DHT22;3186;54.062;9.962;2023-05-29T08:49:16;19.90;10.40
6307;DHT22;3186;54.062;9.962;2023-05-29T08:51:47;19.80;10.90
6307;DHT22;3186;54.062;9.962;2023-05-29T08:54:16;19.70;14.20
6307;DHT22;3186;54.062;9.962;2023-05-29T08:59:09;19.80;11.30
6307;DHT22;3186;54.062;9.962;2023-05-29T09:01:37;20.00;12.80
6307;DHT22;3186;54.062;9.962;2023-05-29T09:04:04;19.90;8.30
6307;DHT22;3186;54.062;9.962;2023-05-29T09:06:30;20.20;10.60
6307;DHT22;3186;54.062;9.962;2023-05-29T09:08:56;20.20;10.00
6307;DHT22;3186;54.062;9.962;2023-05-29T09:11:23;20.50;8.90
6307;DHT22;3186;54.062;9.962;2023-05-29T09:13:49;21.30;8.00
6307;DHT22;3186;54.062;9.962;2023-05-29T09:16:18;21.30;9.30
6307;DHT22;3186;54.062;9.962;2023-05-29T09:18:48;21.70;6.80
6307;DHT22;3186;54.062;9.962;2023-05-29T09:21:27;21.40;6.90
6307;DHT22;3186;54.062;9.962;2023-05-29T09:23:54;21.90;6.60
6307;DHT22;3186;54.062;9.962;2023-05-29T09:26:21;21.90;7.70
6307;DHT22;3186;54.062;9.962;2023-05-29T09:28:49;21.50;3.80
6307;DHT22;3186;54.062;9.962;2023-05-29T09:31:15;21.20;2.80
6307;DHT22;3186;54.062;9.962;2023-05-29T09:33:47;22.70;4.70
6307;DHT22;3186;54.062;9.962;2023-05-29T09:36:23;22.70;8.10
6307;DHT22;3186;54.062;9.962;2023-05-29T09:38:49;22.10;7.40
6307;DHT22;3186;54.062;9.962;2023-05-29T09:41:23;21.90;1.80
6307;DHT22;3186;54.062;9.962;2023-05-29T09:43:50;23.00;8.60
6307;DHT22;3186;54.062;9.962;2023-05-29T09:46:16;23.00;7.40
6307;DHT22;3186;54.062;9.962;2023-05-29T09:48:44;23.20;6.20
6307;DHT22;3186;54.062;9.962;2023-05-29T09:51:21;22.80;4.40
6307;DHT22;3186;54.062;9.962;2023-05-29T09:53:50;23.50;4.90
6307;DHT22;3186;54.062;9.962;2023-05-29T09:56:17;23.40;5.30
6307;DHT22;3186;54.062;9.962;2023-05-29T09:58:44;23.40;10.00
6307;DHT22;3186;54.062;9.962;2023-05-29T10:01:14;23.90;6.80
6307;DHT22;3186;54.062;9.962;2023-05-29T10:03:43;23.00;5.30
6307;DHT22;3186;54.062;9.962;2023-05-29T10:06:16;23.00;6.20
6307;DHT22;3186;54.062;9.962;2023-05-29T10:08:47;23.60;6.80
6307;DHT22;3186;54.062;9.962;2023-05-29T10:13:52;23.20;3.20
6307;DHT22;3186;54.062;9.962;2023-05-29T10:16:23;23.30;4.80
6307;DHT22;3186;54.062;9.962;2023-05-29T10:18:59;23.90;7.50
6307;DHT22;3186;54.062;9.962;2023-05-29T10:21:27;23.90;3.00
6307;DHT22;3186;54.062;9.962;2023-05-29T10:23:54;24.20;6.80
6307;DHT22;3186;54.062;9.962;2023-05-29T10:26:27;24.30;7.90
6307;DHT22;3186;54.062;9.962;2023-05-29T10:29:07;25.10;5.90
6307;DHT22;3186;54.062;9.962;2023-05-29T10:31:43;25.20;7.10
6307;DHT22;3186;54.062;9.962;2023-05-29T10:40:08;25.10;5.80
6307;DHT22;3186;54.062;9.962;2023-05-29T10:50:47;23.80;1.00
6307;DHT22;3186;54.062;9.962;2023-05-29T10:53:32;24.90;6.20
6307;DHT22;3186;54.062;9.962;2023-05-29T10:56:01;24.60;2.10
6307;DHT22;3186;54.062;9.962;2023-05-29T10:58:27;25.60;8.90
6307;DHT22;3186;54.062;9.962;2023-05-29T11:00:55;25.50;6.20
6307;DHT22;3186;54.062;9.962;2023-05-29T11:03:25;25.80;1.00
6307;DHT22;3186;54.062;9.962;2023-05-29T11:06:07;25.70;4.80
6307;DHT22;3186;54.062;9.962;2023-05-29T11:08:44;25.90;3.60
6307;DHT22;3186;54.062;9.962;2023-05-29T11:11:32;24.80;2.60
6307;DHT22;3186;54.062;9.962;2023-05-29T11:19:05;25.20;1.40
6307;DHT22;3186;54.062;9.962;2023-05-29T11:24:26;26.00;4.50
6307;DHT22;3186;54.062;9.962;2023-05-29T11:29:32;26.80;6.50
6307;DHT22;3186;54.062;9.962;2023-05-29T11:32:05;27.00;6.20
6307;DHT22;3186;54.062;9.962;2023-05-29T11:34:33;25.70;1.30
6307;DHT22;3186;54.062;9.962;2023-05-29T11:37:01;25.60;3.30
6307;DHT22;3186;54.062;9.962;2023-05-29T11:39:27;25.60;3.90
6307;DHT22;3186;54.062;9.962;2023-05-29T11:41:54;25.80;4.90
6307;DHT22;3186;54.062;9.962;2023-05-29T11:44:23;27.20;1.00
6307;DHT22;3186;54.062;9.962;2023-05-29T11:47:06;27.10;2.70
6307;DHT22;3186;54.062;9.962;2023-05-29T11:49:34;27.20;1.70
6307;DHT22;3186;54.062;9.962;2023-05-29T11:52:13;26.80;1.00
6307;DHT22;3186;54.062;9.962;2023-05-29T11:54:40;26.10;1.00
6307;DHT22;3186;54.062;9.962;2023-05-29T11:57:17;25.70;2.60
6307;DHT22;3186;54.062;9.962;2023-05-29T11:59:44;26.30;1.80
6307;DHT22;3186;54.062;9.962;2023-05-29T12:02:10;26.90;2.10
6307;DHT22;3186;54.062;9.962;2023-05-29T12:04:37;27.40;3.60
6307;DHT22;3186;54.062;9.962;2023-05-29T12:07:17;27.70;6.50
6307;DHT22;3186;54.062;9.962;2023-05-29T12:09:43;28.20;3.10
6307;DHT22;3186;54.062;9.962;2023-05-29T12:12:09;27.40;1.60
6307;DHT22;3186;54.062;9.962;2023-05-29T12:14:35;26.90;1.00
6307;DHT22;3186;54.062;9.962;2023-05-29T12:17:01;27.00;1.70
6307;DHT22;3186;54.062;9.962;2023-05-29T12:19:27;27.30;1.00
6307;DHT22;3186;54.062;9.962;2023-05-29T12:21:53;27.30;2.00
6307;DHT22;3186;54.062;9.962;2023-05-29T12:24:19;27.10;1.00
6307;DHT22;3186;54.062;9.962;2023-05-29T12:26:45;27.50;1.70
6307;DHT22;3186;54.062;9.962;2023-05-29T12:29:13;27.90;1.00
6307;DHT22;3186;54.062;9.962;2023-05-29T12:31:38;27.70;1.00
6307;DHT22;3186;54.062;9.962;2023-05-29T12:34:10;27.20;1.20
6307;DHT22;3186;54.062;9.962;2023-05-29T12:36:40;26.90;1.00
6307;DHT22;3186;54.062;9.962;2023-05-29T12:39:09;27.00;1.50
6307;DHT22;3186;54.062;9.962;2023-05-29T12:41:37;27.00;3.90
6307;DHT22;3186;54.062;9.962;2023-05-29T12:44:05;27.20;3.70
6307;DHT22;3186;54.062;9.962;2023-05-29T12:46:43;27.30;4.50
6307;DHT22;3186;54.062;9.962;2023-05-29T12:49:17;27.70;2.30
6307;DHT22;3186;54.062;9.962;2023-05-29T12:51:46;28.50;1.00
6307;DHT22;3186;54.062;9.962;2023-05-29T12:54:14;28.20;1.00
6307;DHT22;3186;54.062;9.962;2023-05-29T12:56:40;28.10;1.00
6307;DHT22;3186;54.062;9.962;2023-05-29T12:59:10;27.70;1.00
6307;DHT22;3186;54.062;9.962;2023-05-29T13:01:36;27.70;1.00
6307;DHT22;3186;54.062;9.962;2023-05-29T13:04:04;27.80;1.00
6307;DHT22;3186;54.062;9.962;2023-05-29T13:08:59;27.40;1.00
6307;DHT22;3186;54.062;9.962;2023-05-29T13:13:51;27.70;1.00
6307;DHT22;3186;54.062;9.962;2023-05-29T13:16:17;28.00;1.00
6307;DHT22;3186;54.062;9.962;2023-05-29T13:18:43;28.00;1.00
6307;DHT22;3186;54.062;9.962;2023-05-29T13:21:09;28.00;2.20
6307;DHT22;3186;54.062;9.962;2023-05-29T13:23:36;28.20;3.00
6307;DHT22;3186;54.062;9.962;2023-05-29T13:26:12;28.00;1.00
6307;DHT22;3186;54.062;9.962;2023-05-29T13:28:53;28.30;4.10
6307;DHT22;3186;54.062;9.962;2023-05-29T13:33:56;27.70;1.00
6307;DHT22;3186;54.062;9.962;2023-05-29T13:36:21;28.00;1.50
6307;DHT22;3186;54.062;9.962;2023-05-29T13:38:47;27.80;2.20
6307;DHT22;3186;54.062;9.962;2023-05-29T13:43:39;26.90;1.80
6307;DHT22;3186;54.062;9.962;2023-05-29T13:50:59;28.40;1.00
6307;DHT22;3186;54.062;9.962;2023-05-29T13:58:18;28.50;1.50
6307;DHT22;3186;54.062;9.962;2023-05-29T14:00:45;28.30;1.30
6307;DHT22;3186;54.062;9.962;2023-05-29T14:03:11;27.90;1.60
6307;DHT22;3186;54.062;9.962;2023-05-29T14:08:03;28.00;1.00
6307;DHT22;3186;54.062;9.962;2023-05-29T14:10:29;27.40;1.00
6307;DHT22;3186;54.062;9.962;2023-05-29T14:12:55;27.30;1.00
6307;DHT22;3186;54.062;9.962;2023-05-29T14:25:05;27.70;3.60
6307;DHT22;3186;54.062;9.962;2023-05-29T14:27:31;28.00;4.10
6307;DHT22;3186;54.062;9.962;2023-05-29T14:39:43;27.50;2.70
6307;DHT22;3186;54.062;9.962;2023-05-29T14:44:35;27.40;4.50
6307;DHT22;3186;54.062;9.962;2023-05-29T14:54:23;28.40;6.30
6307;DHT22;3186;54.062;9.962;2023-05-29T14:59:15;28.10;2.70
6307;DHT22;3186;54.062;9.962;2023-05-29T15:06:34;27.70;1.40
6307;DHT22;3186;54.062;9.962;2023-05-29T15:08:59;27.70;1.00
6307;DHT22;3186;54.062;9.962;2023-05-29T15:11:29;27.60;2.20
6307;DHT22;3186;54.062;9.962;2023-05-29T15:16:22;28.00;1.60
6307;DHT22;3186;54.062;9.962;2023-05-29T15:18:48;27.70;1.00
6307;DHT22;3186;54.062;9.962;2023-05-29T15:21:14;27.60;1.00
6307;DHT22;3186;54.062;9.962;2023-05-29T15:23:40;27.50;1.00
6307;DHT22;3186;54.062;9.962;2023-05-29T15:26:09;27.40;1.00
6307;DHT22;3186;54.062;9.962;2023-05-29T15:28:35;27.70;1.00
6307;DHT22;3186;54.062;9.962;2023-05-29T15:31:01;27.70;1.00
6307;DHT22;3186;54.062;9.962;2023-05-29T15:33:27;27.80;1.00
6307;DHT22;3186;54.062;9.962;2023-05-29T15:40:46;27.80;1.00
6307;DHT22;3186;54.062;9.962;2023-05-29T15:43:12;27.80;1.00
6307;DHT22;3186;54.062;9.962;2023-05-29T15:48:04;28.10;1.00
6307;DHT22;3186;54.062;9.962;2023-05-29T15:50:30;27.80;1.00
6307;DHT22;3186;54.062;9.962;2023-05-29T15:52:56;27.80;1.00
6307;DHT22;3186;54.062;9.962;2023-05-29T15:55:23;27.80;1.00
6307;DHT22;3186;54.062;9.962;2023-05-29T15:57:49;27.70;1.00
6307;DHT22;3186;54.062;9.962;2023-05-29T16:02:41;27.70;1.00
6307;DHT22;3186;54.062;9.962;2023-05-29T16:05:07;27.90;1.00
6307;DHT22;3186;54.062;9.962;2023-05-29T16:07:34;27.70;1.00
6307;DHT22;3186;54.062;9.962;2023-05-29T16:10:01;27.80;1.00
6307;DHT22;3186;54.062;9.962;2023-05-29T16:12:26;27.40;1.00
6307;DHT22;3186;54.062;9.962;2023-05-29T16:14:54;27.50;1.00
6307;DHT22;3186;54.062;9.962;2023-05-29T16:17:20;27.50;1.00
6307;DHT22;3186;54.062;9.962;2023-05-29T16:19:46;27.70;1.00
6307;DHT22;3186;54.062;9.962;2023-05-29T16:22:13;27.50;1.00
6307;DHT22;3186;54.062;9.962;2023-05-29T16:24:39;27.70;1.00
6307;DHT22;3186;54.062;9.962;2023-05-29T16:27:04;27.30;1.00
6307;DHT22;3186;54.062;9.962;2023-05-29T16:29:32;27.20;1.00
6307;DHT22;3186;54.062;9.962;2023-05-29T16:31:58;27.40;1.00
6307;DHT22;3186;54.062;9.962;2023-05-29T16:34:24;27.60;1.00
6307;DHT22;3186;54.062;9.962;2023-05-29T16:36:50;27.60;1.00
6307;DHT22;3186;54.062;9.962;2023-05-29T16:39:15;27.60;1.00
6307;DHT22;3186;54.062;9.962;2023-05-29T16:41:48;27.50;1.00
6307;DHT22;3186;54.062;9.962;2023-05-29T16:44:14;27.30;1.00
6307;DHT22;3186;54.062;9.962;2023-05-29T16:46:39;27.30;2.30
6307;DHT22;3186;54.062;9.962;2023-05-29T16:51:32;27.30;1.00
6307;DHT22;3186;54.062;9.962;2023-05-29T16:53:58;27.30;1.00
6307;DHT22;3186;54.062;9.962;2023-05-29T16:56:24;27.20;1.90
6307;DHT22;3186;54.062;9.962;2023-05-29T16:58:50;27.50;2.50
6307;DHT22;3186;54.062;9.962;2023-05-29T17:03:42;27.10;1.80
6307;DHT22;3186;54.062;9.962;2023-05-29T17:06:08;26.90;2.20
6307;DHT22;3186;54.062;9.962;2023-05-29T17:15:53;26.40;3.60
6307;DHT22;3186;54.062;9.962;2023-05-29T17:20:45;26.40;1.00
6307;DHT22;3186;54.062;9.962;2023-05-29T17:30:38;26.30;1.60
6307;DHT22;3186;54.062;9.962;2023-05-29T17:35:31;26.10;1.20
6307;DHT22;3186;54.062;9.962;2023-05-29T17:40:24;26.00;1.50
6307;DHT22;3186;54.062;9.962;2023-05-29T17:45:17;25.50;1.10
6307;DHT22;3186;54.062;9.962;2023-05-29T17:47:43;25.60;1.10
6307;DHT22;3186;54.062;9.962;2023-05-29T17:50:09;25.70;1.00
6307;DHT22;3186;54.062;9.962;2023-05-29T17:55:02;25.40;1.00
6307;DHT22;3186;54.062;9.962;2023-05-29T17:59:54;25.10;1.20
6307;DHT22;3186;54.062;9.962;2023-05-29T18:04:46;24.80;1.30
6307;DHT22;3186;54.062;9.962;2023-05-29T18:07:14;24.80;1.00
6307;DHT22;3186;54.062;9.962;2023-05-29T18:12:10;24.90;1.20
6307;DHT22;3186;54.062;9.962;2023-05-29T18:21:58;24.60;1.00
6307;DHT22;3186;54.062;9.962;2023-05-29T18:26:50;23.70;1.70
6307;DHT22;3186;54.062;9.962;2023-05-29T18:31:42;23.80;2.40
6307;DHT22;3186;54.062;9.962;2023-05-29T18:34:08;23.80;3.10
6307;DHT22;3186;54.062;9.962;2023-05-29T18:39:00;23.60;2.30
6307;DHT22;3186;54.062;9.962;2023-05-29T18:41:26;23.60;3.00
6307;DHT22;3186;54.062;9.962;2023-05-29T18:43:53;23.30;4.80
6307;DHT22;3186;54.062;9.962;2023-05-29T18:46:19;23.30;3.40
6307;DHT22;3186;54.062;9.962;2023-05-29T18:48:46;23.40;1.60
6307;DHT22;3186;54.062;9.962;2023-05-29T18:53:38;23.20;1.90
6307;DHT22;3186;54.062;9.962;2023-05-29T18:56:07;23.10;3.40
6307;DHT22;3186;54.062;9.962;2023-05-29T19:00:59;23.00;1.70
6307;DHT22;3186;54.062;9.962;2023-05-29T19:03:26;22.90;3.60
6307;DHT22;3186;54.062;9.962;2023-05-29T19:10:46;22.70;4.10
6307;DHT22;3186;54.062;9.962;2023-05-29T19:20:31;22.30;7.00
6307;DHT22;3186;54.062;9.962;2023-05-29T19:30:17;21.70;6.40
6307;DHT22;3186;54.062;9.962;2023-05-29T19:32:44;21.70;6.40
6307;DHT22;3186;54.062;9.962;2023-05-29T19:49:48;21.10;7.80
6307;DHT22;3186;54.062;9.962;2023-05-29T19:59:34;20.80;5.20
6307;DHT22;3186;54.062;9.962;2023-05-29T20:02:00;20.70;2.50
6307;DHT22;3186;54.062;9.962;2023-05-29T20:04:30;20.60;1.00